This is the latest recevied weather packets stored in our database for station/object OK1FET-6. If no packets are shown the sender has not sent any weather packets the latest 10 day(s).
| Time | Temp. | Humidity | Pressure | Rain* | Wind** | Luminosity | Snow |
|---|---|---|---|---|---|---|---|
| 1788344105 | 42.22° C | 27% | 1021.5 hPa | 0 mm | - | - | - |
| 1788343506 | 40° C | 29% | 1021.5 hPa | 0 mm | - | - | - |
| 1788342908 | 37.78° C | 32% | 1021.6 hPa | 0 mm | - | - | - |
| 1788342310 | 40° C | 30% | 1021.8 hPa | 0 mm | - | - | - |
| 1788341709 | 41.11° C | 30% | 1021.8 hPa | 0 mm | - | - | - |
| 1788341110 | 42.78° C | 29% | 1021.9 hPa | 0 mm | - | - | - |
| 1788340512 | 41.67° C | 31% | 1021.8 hPa | 0 mm | - | - | - |
| 1788339914 | 41.11° C | 31% | 1021.8 hPa | 0 mm | - | - | - |
| 1788339315 | 41.67° C | 32% | 1021.9 hPa | 0 mm | - | - | - |
| 1788338118 | 40° C | 34% | 1021.9 hPa | 0 mm | - | - | - |
| 1788337519 | 37.78° C | 36% | 1022 hPa | 0 mm | - | - | - |
| 1788336920 | 36.11° C | 38% | 1022 hPa | 0 mm | - | - | - |
| 1788336322 | 35° C | 39% | 1022 hPa | 0 mm | - | - | - |
| 1788335724 | 32.78° C | 42% | 1021.9 hPa | 0 mm | - | - | - |
| 1788335126 | 31.67° C | 43% | 1021.9 hPa | 0 mm | - | - | - |
| 1788334528 | 30° C | 46% | 1021.9 hPa | 0 mm | - | - | - |
| 1788333331 | 24.44° C | 52% | 1022 hPa | 0 mm | - | - | - |
| 1788332733 | 21.67° C | 55% | 1021.9 hPa | 0 mm | - | - | - |
| 1788332135 | 19.44° C | 58% | 1021.9 hPa | 0 mm | - | - | - |
| 1788331536 | 16.11° C | 63% | 1021.7 hPa | 0 mm | - | - | - |
| 1788330938 | 14.44° C | 65% | 1021.7 hPa | 0 mm | - | - | - |
| 1788330340 | 14.44° C | 65% | 1021.7 hPa | 0 mm | - | - | - |
| 1788327348 | 12.78° C | 66% | 1021.6 hPa | 0 mm | - | - | - |
| 1788326750 | 12.22° C | 66% | 1021.5 hPa | 0 mm | - | - | - |
| 1788326152 | 12.22° C | 65% | 1021.3 hPa | 0 mm | - | - | - |
* Rain latest hour (hover to see other rain measurements)
** Current wind speed in m/s (hover to see current wind gust speed)